| time (UTC) | temp C | wind direction | speed KPH | gust KPH | rain 1hr cm | rain 24hr cm | rain mn cm | humidity % | barometer mb |
| 20260506163119 | 12 | 236 | 0.0 | 0.0 | 0.00 | 1.17 | 1.12 | 1 | 1005.2 |
| 20260506163049 | 12 | 236 | 0.0 | 0.0 | 0.00 | 1.17 | 1.12 | 1 | 1005.2 |
| 20260506161551 | 13 | 236 | 0.0 | 0.0 | 0.00 | 1.17 | 1.12 | 1 | 1005.1 |
| 20260506160041 | 13 | 223 | 0.0 | 0.0 | 0.00 | 1.17 | 1.12 | 5 | 1005.2 |
| 20260506154629 | 13 | 295 | 0.0 | 0.0 | 0.00 | 1.17 | 1.12 | 31 | 1005.4 |
| 20260506153136 | 15 | 329 | 0.0 | 0.0 | 0.00 | 1.17 | 1.12 | 39 | 1004.8 |
| 20260506151531 | 15 | 330 | 0.0 | 0.0 | 0.00 | 1.17 | 1.12 | 45 | 1004.6 |
| 20260506151501 | 15 | 330 | 0.0 | 0.0 | 0.00 | 1.17 | 1.12 | 45 | 1004.7 |
| 20260506150056 | 15 | 330 | 0.0 | 0.0 | 0.00 | 1.17 | 1.12 | 49 | 1004.7 |
| 20260506144621 | 15 | 331 | 0.0 | 0.0 | 0.00 | 1.17 | 1.12 | 46 | 1004.7 |
| 20260506143125 | 15 | 224 | 0.0 | 0.0 | 0.00 | 1.17 | 1.12 | 50 | 1004.8 |
| 20260506140156 | 15 | 265 | 0.0 | 0.0 | 0.00 | 1.17 | 1.12 | 42 | 1004.9 |
| 20260506134532 | 15 | 233 | 0.0 | 0.0 | 0.00 | 1.17 | 1.12 | 35 | 1005.1 |
| 20260506133024 | 14 | 234 | 0.0 | 0.0 | 0.00 | 1.17 | 1.12 | 35 | 1005.3 |
| 20260506131518 | 14 | 235 | 0.0 | 0.0 | 0.00 | 1.17 | 1.12 | 28 | 1005.4 |
| 20260506130014 | 13 | 204 | 0.0 | 0.0 | 0.00 | 1.17 | 1.12 | 21 | 1005.2 |
| 20260506124507 | 13 | 193 | 0.0 | 0.0 | 0.00 | 1.17 | 1.12 | 1 | 1005.2 |
| 20260506123014 | 13 | 238 | 0.0 | 0.0 | 0.03 | 1.17 | 1.12 | 1 | 1005.2 |
| 20260506121627 | 13 | 211 | 0.0 | 0.0 | 0.05 | 1.19 | 1.12 | 1 | 1005.3 |
| 20260506120059 | 13 | 173 | 0.0 | 0.0 | 0.05 | 1.19 | 1.12 | 1 | 1005.4 |
| 20260506114604 | 13 | 222 | 0.0 | 0.0 | 0.05 | 1.19 | 1.12 | 1 | 1005.4 |
| 20260506113049 | 12 | 196 | 0.0 | 0.0 | 0.05 | 1.17 | 1.09 | 1 | 1005.5 |
| 20260506113019 | 12 | 188 | 0.0 | 0.0 | 0.05 | 1.17 | 1.09 | 1 | 1005.5 |
| 20260506111514 | 12 | 228 | 0.0 | 0.0 | 0.05 | 1.17 | 1.09 | 1 | 1005.5 |
| 20260506110010 | 12 | 221 | 0.0 | 0.0 | 0.05 | 1.17 | 1.09 | 1 | 1005.5 |
| 20260506104604 | 12 | 214 | 0.0 | 0.0 | 0.05 | 1.14 | 1.07 | 1 | 1005.6 |
| 20260506103054 | 11 | 265 | 0.0 | 0.0 | 0.05 | 1.12 | 1.04 | 1 | 1005.5 |
| 20260506101624 | 11 | 217 | 0.0 | 0.0 | 0.08 | 1.12 | 1.04 | 1 | 1005.5 |
| 20260506100018 | 11 | 197 | 0.0 | 0.0 | 0.08 | 1.09 | 1.02 | 1 | 1005.4 |
| 20260506094514 | 11 | 261 | 0.0 | 0.0 | 0.10 | 1.09 | 0.99 | 1 | 1005.2 |
| 20260506093009 | 11 | 261 | 0.0 | 0.0 | 0.10 | 1.07 | 0.99 | 1 | 1005.1 |
| 20260506091502 | 10 | 261 | 0.0 | 0.0 | 0.13 | 1.04 | 0.97 | 1 | 1005.0 |
| 20260506090058 | 10 | 253 | 0.0 | 0.0 | 0.15 | 1.02 | 0.94 | 1 | 1004.9 |
| 20260506090010 | 10 | 253 | 0.0 | 0.0 | 0.15 | 1.02 | 0.94 | 1 | 1004.9 |
| 20260506084622 | 10 | 252 | 0.0 | 0.0 | 0.15 | 0.99 | 0.91 | 1 | 1004.8 |
| 20260506083048 | 10 | 269 | 0.0 | 0.0 | 0.15 | 0.97 | 0.89 | 1 | 1004.6 |
| 20260506083012 | 10 | 269 | 0.0 | 0.0 | 0.15 | 0.97 | 0.89 | 1 | 1004.6 |
| 20260506081619 | 10 | 300 | 0.0 | 0.0 | 0.15 | 0.91 | 0.84 | 1 | 1004.5 |
| 20260506073033 | 10 | 242 | 0.0 | 0.0 | 0.18 | 0.79 | 0.71 | 1 | 1004.2 |
| 20260506071601 | 10 | 242 | 0.0 | 0.0 | 0.20 | 0.76 | 0.69 | 1 | 1004.0 |
| 20260506061558 | 10 | 312 | 0.0 | 0.0 | 0.20 | 0.56 | 0.48 | 1 | 1003.5 |
| 20260506060146 | 10 | 47 | 0.0 | 0.0 | 0.20 | 0.51 | 0.43 | 1 | 1003.4 |
| 20260506044530 | 10 | 47 | 0.0 | 0.0 | 0.18 | 0.25 | 0.18 | 1 | 1002.8 |
| 20260506043049 | 10 | 47 | 0.0 | 0.0 | 0.13 | 0.20 | 0.13 | 1 | 1002.8 |
| 20260506041630 | 10 | 47 | 0.0 | 0.0 | 0.08 | 0.20 | 0.08 | 1 | 1002.8 |
| 20260506040056 | 10 | 47 | 0.0 | 0.0 | 0.05 | 0.15 | 0.05 | 1 | 1002.8 |
| 20260506034542 | 10 | 47 | 0.0 | 0.0 | 0.00 | 0.13 | 0.00 | 1 | 1002.8 |
| 20260506034508 | 10 | 47 | 0.0 | 0.0 | 0.00 | 0.13 | 0.00 | 1 | 1002.8 |
| 20260506033034 | 10 | 47 | 0.0 | 0.0 | 0.00 | 0.13 | 0.00 | 1 | 1002.9 |
| 20260506033004 | 10 | 47 | 0.0 | 0.0 | 0.00 | 0.13 | 0.00 | 1 | 1002.9 |
| 20260506030025 | 10 | 47 | 0.0 | 0.0 | 0.00 | 0.18 | 0.13 | 1 | 1002.9 |
| 20260506023048 | 10 | 47 | 0.0 | 0.0 | 0.00 | 0.18 | 0.13 | 1 | 1003.3 |
| 20260506021544 | 10 | 47 | 0.0 | 0.0 | 0.00 | 0.23 | 0.13 | 1 | 1003.2 |
| 20260506020044 | 10 | 47 | 0.0 | 0.0 | 0.00 | 0.23 | 0.13 | 1 | 1003.3 |
| 20260506013048 | 10 | 47 | 0.0 | 0.0 | 0.00 | 0.23 | 0.13 | 1 | 1003.6 |
| 20260506011512 | 10 | 47 | 0.0 | 0.0 | 0.00 | 0.33 | 0.13 | 1 | 1003.8 |
| 20260506010140 | 10 | 47 | 0.0 | 0.0 | 0.00 | 0.33 | 0.13 | 1 | 1003.9 |
| 20260506004600 | 10 | 47 | 0.0 | 0.0 | 0.00 | 0.33 | 0.13 | 1 | 1004.0 |
| 20260506001530 | 10 | 47 | 0.0 | 0.0 | 0.00 | 0.41 | 0.13 | 1 | 1004.3 |
| 20260506000023 | 11 | 47 | 0.0 | 0.0 | 0.00 | 0.41 | 0.13 | 1 | 1004.4 |
| 20260505234557 | 11 | 47 | 0.0 | 0.0 | 0.00 | 0.41 | 0.13 | 1 | 1004.6 |
| 20260505233112 | 11 | 47 | 0.0 | 0.0 | 0.00 | 0.41 | 0.13 | 1 | 1004.7 |
| 20260505231606 | 11 | 47 | 0.0 | 0.0 | 0.00 | 0.48 | 0.13 | 1 | 1004.9 |
| 20260505230055 | 11 | 47 | 0.0 | 0.0 | 0.00 | 0.48 | 0.13 | 1 | 1004.9 |
| 20260505224602 | 11 | 47 | 0.0 | 0.0 | 0.00 | 0.48 | 0.13 | 1 | 1004.9 |
| 20260505223114 | 11 | 84 | 0.0 | 0.0 | 0.00 | 0.48 | 0.13 | 1 | 1005.0 |
| 20260505221551 | 11 | 304 | 0.0 | 0.0 | 0.00 | 0.48 | 0.13 | 1 | 1005.1 |
| 20260505220040 | 11 | 82 | 0.0 | 0.0 | 0.00 | 0.48 | 0.13 | 1 | 1005.2 |
| 20260505214536 | 11 | 82 | 0.0 | 0.0 | 0.00 | 0.48 | 0.13 | 1 | 1005.3 |
| 20260505213023 | 11 | 82 | 0.0 | 0.0 | 0.00 | 0.48 | 0.13 | 1 | 1005.4 |
| 20260505211522 | 12 | 82 | 0.0 | 0.0 | 0.03 | 0.48 | 0.13 | 1 | 1005.5 |
| 20260505210026 | 12 | 82 | 0.0 | 0.0 | 0.05 | 0.48 | 0.13 | 1 | 1005.7 |
| 20260505204523 | 12 | 82 | 0.0 | 0.0 | 0.05 | 0.48 | 0.13 | 1 | 1005.7 |
| 20260505203014 | 12 | 82 | 0.0 | 0.0 | 0.05 | 0.48 | 0.13 | 1 | 1005.7 |
| 20260505201510 | 13 | 82 | 0.0 | 0.0 | 0.03 | 0.46 | 0.10 | 1 | 1005.6 |
| 20260505200005 | 13 | 82 | 0.0 | 0.0 | 0.00 | 0.43 | 0.08 | 1 | 1005.4 |
| 20260505194501 | 13 | 82 | 0.0 | 0.0 | 0.00 | 0.43 | 0.08 | 1 | 1005.2 |
| 20260505193054 | 13 | 82 | 0.0 | 0.0 | 0.00 | 0.43 | 0.08 | 1 | 1004.6 |
| 20260505191619 | 13 | 98 | 0.0 | 0.0 | 0.00 | 0.43 | 0.08 | 22 | 1004.1 |
| 20260505190045 | 14 | 102 | 0.0 | 0.0 | 0.00 | 0.43 | 0.08 | 29 | 1003.9 |
| 20260505184639 | 15 | 123 | 0.0 | 0.0 | 0.00 | 0.43 | 0.08 | 32 | 1003.9 |
| 20260505183118 | 16 | 111 | 0.0 | 0.0 | 0.00 | 0.43 | 0.08 | 16 | 1004.0 |
| 20260505181600 | 16 | 148 | 0.0 | 0.0 | 0.00 | 0.43 | 0.08 | 31 | 1003.7 |
| 20260505180139 | 16 | 118 | 0.0 | 0.0 | 0.00 | 0.43 | 0.08 | 34 | 1003.5 |
| 20260505174534 | 17 | 132 | 0.0 | 0.0 | 0.00 | 0.43 | 0.08 | 22 | 1003.5 |
| 20260505173056 | 17 | 132 | 0.0 | 0.0 | 0.00 | 0.43 | 0.08 | 31 | 1003.5 |
| 20260505173006 | 17 | 123 | 0.0 | 0.0 | 0.00 | 0.43 | 0.08 | 29 | 1003.5 |
| 20260505171553 | 17 | 153 | 0.0 | 0.0 | 0.00 | 0.43 | 0.08 | 34 | 1003.6 |
| 20260505170045 | 17 | 144 | 0.0 | 0.0 | 0.00 | 0.43 | 0.08 | 52 | 1003.7 |
| 20260505164549 | 17 | 227 | 0.0 | 0.0 | 0.00 | 0.43 | 0.08 | 52 | 1003.7 |